createdAt,value
2023-04-22T00:01:17.413Z,8.40
2023-04-22T00:03:44.942Z,8.40
2023-04-22T00:06:12.450Z,8.40
2023-04-22T00:08:39.722Z,8.40
2023-04-22T00:11:06.986Z,8.40
2023-04-22T00:13:34.155Z,8.40
2023-04-22T00:16:01.618Z,8.30
2023-04-22T00:18:28.528Z,8.30
2023-04-22T00:20:55.643Z,8.30
2023-04-22T00:23:22.662Z,8.30
2023-04-22T00:25:49.880Z,8.30
2023-04-22T00:28:16.836Z,8.30
2023-04-22T00:30:45.126Z,8.30
2023-04-22T00:33:12.442Z,8.20
2023-04-22T00:35:39.353Z,8.20
2023-04-22T00:38:06.648Z,8.20
2023-04-22T00:40:33.677Z,8.20
2023-04-22T00:43:01.391Z,8.20
2023-04-22T00:45:28.699Z,8.20
2023-04-22T00:47:56.649Z,8.10
2023-04-22T00:50:23.691Z,8.10
2023-04-22T00:52:50.938Z,8.10
2023-04-22T00:55:17.952Z,8.10
2023-04-22T00:57:45.403Z,8.10
2023-04-22T01:00:13.415Z,8.10
2023-04-22T01:02:40.799Z,8.00
2023-04-22T01:05:11.191Z,8.00
2023-04-22T01:07:38.503Z,8.00
2023-04-22T01:10:05.946Z,8.00
2023-04-22T01:12:33.152Z,8.00
2023-04-22T01:15:01.149Z,8.00
2023-04-22T01:17:32.063Z,8.00
2023-04-22T01:20:00.162Z,8.00
2023-04-22T01:22:30.826Z,8.00
2023-04-22T01:24:57.870Z,8.00
2023-04-22T01:27:26.077Z,7.90
2023-04-22T01:29:53.230Z,7.90
2023-04-22T01:32:21.700Z,7.90
2023-04-22T01:34:48.840Z,7.90
2023-04-22T01:37:17.843Z,8.00
2023-04-22T01:39:47.004Z,7.90
2023-04-22T01:42:15.255Z,7.90
2023-04-22T01:44:42.189Z,7.90
2023-04-22T01:47:09.530Z,7.90
2023-04-22T01:49:36.531Z,7.90
2023-04-22T01:52:03.794Z,7.80
2023-04-22T01:54:31.530Z,7.90
2023-04-22T01:56:58.844Z,7.90
2023-04-22T01:59:25.842Z,7.80
2023-04-22T02:01:56.419Z,7.80
2023-04-22T02:04:29.453Z,7.80
2023-04-22T02:07:05.173Z,7.80
2023-04-22T02:09:35.590Z,7.80
2023-04-22T02:12:02.931Z,7.80
2023-04-22T02:14:29.866Z,7.80
2023-04-22T02:17:03.413Z,7.80
2023-04-22T02:19:30.663Z,7.80
2023-04-22T02:21:58.183Z,7.80
2023-04-22T02:24:25.599Z,7.70
2023-04-22T02:26:52.904Z,7.70
2023-04-22T02:29:20.048Z,7.70
2023-04-22T02:31:47.899Z,7.70
2023-04-22T02:34:14.962Z,7.60
2023-04-22T02:36:42.022Z,7.60
2023-04-22T02:39:09.080Z,7.60
2023-04-22T02:41:36.881Z,7.50
2023-04-22T02:44:03.859Z,7.50
2023-04-22T02:46:31.604Z,7.50
2023-04-22T02:48:58.604Z,7.50
2023-04-22T02:51:26.883Z,7.50
2023-04-22T02:53:54.072Z,7.50
2023-04-22T02:56:21.564Z,7.50
2023-04-22T02:58:48.540Z,7.50
2023-04-22T03:01:15.730Z,7.50
2023-04-22T03:03:43.358Z,7.50
2023-04-22T03:06:14.295Z,7.40
2023-04-22T03:08:41.316Z,7.40
2023-04-22T03:11:08.249Z,7.50
2023-04-22T03:13:35.457Z,7.50
2023-04-22T03:16:02.554Z,7.40
2023-04-22T03:18:29.593Z,7.40
2023-04-22T03:20:56.511Z,7.40
2023-04-22T03:23:23.751Z,7.40
2023-04-22T03:25:51.089Z,7.40
2023-04-22T03:28:19.502Z,7.40
2023-04-22T03:30:47.452Z,7.40
2023-04-22T03:33:15.127Z,7.40
2023-04-22T03:35:49.323Z,7.40
2023-04-22T03:38:18.244Z,7.40
2023-04-22T03:40:45.751Z,7.40
2023-04-22T03:43:32.933Z,7.60
2023-04-22T03:46:05.268Z,7.50
2023-04-22T03:48:35.871Z,7.50
2023-04-22T03:51:09.099Z,7.50
2023-04-22T03:53:38.067Z,7.60
2023-04-22T03:56:06.262Z,7.60
2023-04-22T03:58:37.359Z,7.60
2023-04-22T04:01:09.140Z,7.60
2023-04-22T04:03:37.282Z,7.70
2023-04-22T04:06:05.013Z,7.70
2023-04-22T04:08:32.433Z,7.70
2023-04-22T04:11:00.058Z,7.80
2023-04-22T04:13:32.471Z,7.80
2023-04-22T04:16:22.286Z,7.80
2023-04-22T04:18:55.595Z,7.90
2023-04-22T04:21:27.001Z,7.90
2023-04-22T04:23:56.064Z,7.90
2023-04-22T04:26:32.608Z,7.90
2023-04-22T04:29:08.887Z,8.00
2023-04-22T04:31:38.833Z,8.00
2023-04-22T04:34:07.456Z,8.00
2023-04-22T04:36:36.996Z,8.10
2023-04-22T04:39:17.454Z,8.20
2023-04-22T04:41:45.280Z,8.20
2023-04-22T04:44:12.619Z,8.20
2023-04-22T04:46:40.856Z,8.20
2023-04-22T04:49:12.745Z,8.30
2023-04-22T04:51:51.718Z,8.30
2023-04-22T04:54:19.052Z,8.40
2023-04-22T04:56:46.552Z,8.40
2023-04-22T04:59:14.482Z,8.40
2023-04-22T05:01:43.379Z,8.40
2023-04-22T05:04:12.804Z,8.50
2023-04-22T05:06:42.277Z,8.50
2023-04-22T05:09:09.363Z,8.50
2023-04-22T05:11:36.948Z,8.50
2023-04-22T05:14:11.338Z,8.50
2023-04-22T05:16:41.855Z,8.60
2023-04-22T05:19:09.612Z,8.60
2023-04-22T05:21:37.081Z,8.70
2023-04-22T05:24:04.535Z,8.70
2023-04-22T05:26:31.976Z,8.80
2023-04-22T05:29:00.989Z,8.90
2023-04-22T05:31:29.196Z,8.90
2023-04-22T05:33:57.757Z,9.00
2023-04-22T05:36:30.587Z,9.10
2023-04-22T05:38:58.852Z,9.20
2023-04-22T05:41:26.328Z,9.20
2023-04-22T05:43:55.704Z,9.30
2023-04-22T05:46:22.727Z,9.30
2023-04-22T05:48:50.284Z,9.40
2023-04-22T05:51:40.296Z,9.50
2023-04-22T05:54:07.510Z,9.60
2023-04-22T05:56:34.544Z,9.60
2023-04-22T05:59:02.278Z,9.70
2023-04-22T06:01:29.414Z,9.80
2023-04-22T06:04:07.925Z,9.90
2023-04-22T06:06:35.551Z,9.80
2023-04-22T06:09:02.698Z,9.90
2023-04-22T06:11:29.730Z,10.00
2023-04-22T06:13:56.923Z,10.10
2023-04-22T06:16:24.150Z,10.20
2023-04-22T06:18:51.335Z,10.20
2023-04-22T06:21:18.560Z,10.30
2023-04-22T06:23:46.160Z,10.40
2023-04-22T06:26:13.208Z,10.50
2023-04-22T06:28:40.811Z,10.60
2023-04-22T06:31:12.363Z,10.60
2023-04-22T06:33:40.078Z,10.70
2023-04-22T06:36:08.334Z,10.80
2023-04-22T06:38:36.793Z,10.80
2023-04-22T06:41:40.924Z,10.90
2023-04-22T06:44:25.591Z,11.00
2023-04-22T06:47:11.705Z,11.10
2023-04-22T06:49:53.018Z,11.30
2023-04-22T06:52:35.457Z,11.40
2023-04-22T06:55:03.808Z,11.60
2023-04-22T06:59:58.840Z,12.10
2023-04-22T07:02:28.770Z,12.70
2023-04-22T07:04:56.029Z,13.50
2023-04-22T07:07:25.016Z,14.30
2023-04-22T07:09:51.995Z,15.10
2023-04-22T07:12:19.233Z,15.70
2023-04-22T07:14:46.488Z,16.20
2023-04-22T07:17:14.870Z,16.70
2023-04-22T07:19:42.237Z,17.00
2023-04-22T07:22:09.599Z,17.20
2023-04-22T07:24:37.688Z,17.30
2023-04-22T07:27:05.076Z,17.40
2023-04-22T07:29:32.020Z,17.50
2023-04-22T07:31:59.084Z,17.70
2023-04-22T07:34:26.314Z,18.00
2023-04-22T07:36:53.667Z,18.30
2023-04-22T07:39:21.005Z,18.60
2023-04-22T07:41:47.931Z,19.20
2023-04-22T07:44:18.565Z,19.40
2023-04-22T07:46:45.790Z,19.60
2023-04-22T07:49:14.391Z,20.30
2023-04-22T07:51:41.575Z,21.50
2023-04-22T07:54:08.659Z,22.90
2023-04-22T07:56:35.587Z,23.70
2023-04-22T07:59:03.202Z,23.70
2023-04-22T08:01:30.131Z,23.20
2023-04-22T08:03:57.669Z,22.90
2023-04-22T08:06:24.908Z,23.30
2023-04-22T08:08:52.258Z,23.60
2023-04-22T08:11:19.172Z,23.10
2023-04-22T08:13:46.224Z,22.50
2023-04-22T08:16:13.218Z,22.30
2023-04-22T08:18:40.703Z,22.20
2023-04-22T08:23:35.411Z,22.40
2023-04-22T08:26:03.124Z,22.70
2023-04-22T08:28:30.627Z,22.90
2023-04-22T08:30:57.584Z,22.80
2023-04-22T08:33:27.164Z,22.40
2023-04-22T08:35:54.410Z,22.10
2023-04-22T08:38:22.574Z,21.80
2023-04-22T08:40:49.943Z,21.50
2023-04-22T08:43:18.034Z,21.20
2023-04-22T08:45:45.090Z,21.00
2023-04-22T08:48:12.725Z,21.10
2023-04-22T08:50:40.119Z,21.00
2023-04-22T08:53:07.401Z,21.20
2023-04-22T08:55:34.744Z,21.50
2023-04-22T08:58:04.544Z,22.00
2023-04-22T09:00:34.454Z,22.10
2023-04-22T09:03:03.393Z,22.40
2023-04-22T09:05:33.011Z,22.60
2023-04-22T09:08:01.115Z,23.10
2023-04-22T09:10:28.774Z,23.90
2023-04-22T09:12:56.730Z,24.90
2023-04-22T09:15:24.350Z,25.60
2023-04-22T09:17:52.006Z,25.80
2023-04-22T09:20:20.000Z,26.10
2023-04-22T09:22:48.621Z,25.90
2023-04-22T09:25:16.207Z,25.50
2023-04-22T09:27:43.552Z,25.20
2023-04-22T09:30:10.940Z,25.20
2023-04-22T09:32:39.730Z,25.30
2023-04-22T09:35:07.116Z,25.70
2023-04-22T09:37:46.560Z,26.20
2023-04-22T09:40:18.543Z,26.80
2023-04-22T09:42:52.935Z,27.50
2023-04-22T09:45:28.513Z,28.20
2023-04-22T09:47:57.382Z,28.60
2023-04-22T09:50:25.543Z,28.70
2023-04-22T09:53:04.258Z,28.70
2023-04-22T09:55:32.595Z,28.80
2023-04-22T09:58:05.236Z,28.60
2023-04-22T10:00:32.272Z,28.70
2023-04-22T10:02:59.571Z,28.70
2023-04-22T10:05:27.274Z,28.60
2023-04-22T10:07:54.482Z,28.60
2023-04-22T10:10:21.884Z,28.30
2023-04-22T10:12:49.322Z,28.20
2023-04-22T10:15:16.363Z,28.40
2023-04-22T10:17:45.038Z,28.50
2023-04-22T10:20:16.236Z,28.40
2023-04-22T10:22:43.706Z,28.20
2023-04-22T10:25:21.079Z,28.20
2023-04-22T10:28:08.040Z,27.90
2023-04-22T10:30:36.871Z,28.00
2023-04-22T10:33:27.691Z,28.10
2023-04-22T10:36:15.054Z,28.20
2023-04-22T10:39:02.174Z,28.20
2023-04-22T10:41:30.059Z,27.70
2023-04-22T10:44:00.968Z,27.80
2023-04-22T10:46:30.814Z,27.70
2023-04-22T10:48:57.935Z,27.60
2023-04-22T10:51:44.840Z,27.50
2023-04-22T10:54:31.513Z,27.70
2023-04-22T10:57:05.502Z,28.00
2023-04-22T10:59:33.576Z,28.20
2023-04-22T11:02:03.573Z,28.20
2023-04-22T11:04:31.301Z,28.20
2023-04-22T11:07:13.540Z,28.40
2023-04-22T11:09:41.137Z,28.40
2023-04-22T11:12:26.704Z,28.60
2023-04-22T11:25:33.915Z,28.60
2023-04-22T11:28:01.399Z,28.40
2023-04-22T11:30:29.014Z,28.70
2023-04-22T11:32:59.434Z,28.40
2023-04-22T11:35:34.093Z,27.80
2023-04-22T11:38:02.356Z,27.50
2023-04-22T11:40:32.260Z,27.70
2023-04-22T11:43:02.047Z,27.80
2023-04-22T11:45:30.281Z,27.70
2023-04-22T11:47:57.467Z,27.60
2023-04-22T11:50:26.792Z,27.60
2023-04-22T11:52:55.216Z,27.70
2023-04-22T11:55:30.401Z,27.90
2023-04-22T11:57:59.767Z,28.10
2023-04-22T12:00:31.935Z,28.40
2023-04-22T12:03:03.271Z,28.40
2023-04-22T12:05:33.826Z,28.40
2023-04-22T12:08:06.487Z,28.50
2023-04-22T12:10:33.545Z,28.10
2023-04-22T12:13:01.188Z,27.70
2023-04-22T12:15:37.303Z,27.20
2023-04-22T12:18:04.875Z,27.40
2023-04-22T12:20:35.826Z,27.30
2023-04-22T12:23:04.209Z,27.10
2023-04-22T12:25:33.903Z,27.30
2023-04-22T12:28:01.288Z,27.10
2023-04-22T12:30:28.552Z,27.00
2023-04-22T12:32:55.497Z,27.10
2023-04-22T12:35:22.858Z,27.30
2023-04-22T12:37:50.634Z,27.00
2023-04-22T12:40:18.650Z,26.70
2023-04-22T12:42:45.544Z,26.60
2023-04-22T12:45:12.715Z,26.10
2023-04-22T12:47:39.819Z,25.50
2023-04-22T12:50:07.425Z,24.90
2023-04-22T12:52:37.644Z,24.00
2023-04-22T12:55:05.015Z,23.20
2023-04-22T12:57:32.430Z,22.60
2023-04-22T12:59:59.797Z,22.20
2023-04-22T13:02:26.753Z,21.80
2023-04-22T13:04:53.952Z,21.40
2023-04-22T13:07:21.017Z,20.90
2023-04-22T13:09:48.202Z,20.70
2023-04-22T13:12:15.228Z,20.40
2023-04-22T13:14:42.832Z,20.30
2023-04-22T13:17:09.883Z,20.20
2023-04-22T13:19:37.050Z,20.00
2023-04-22T13:22:04.003Z,20.00
2023-04-22T13:24:31.386Z,19.90
2023-04-22T13:26:59.090Z,19.80
2023-04-22T13:29:26.562Z,19.70
2023-04-22T13:31:53.573Z,19.40
2023-04-22T13:34:20.920Z,19.20
2023-04-22T13:36:47.902Z,19.00
2023-04-22T13:39:15.903Z,18.80
2023-04-22T13:41:42.874Z,18.50
2023-04-22T13:44:11.460Z,18.20
2023-04-22T13:46:39.099Z,17.90
2023-04-22T13:49:06.289Z,17.80
2023-04-22T13:51:33.328Z,17.70
2023-04-22T13:54:00.817Z,17.50
2023-04-22T13:56:27.770Z,17.60
2023-04-22T13:58:55.300Z,17.50
2023-04-22T14:01:22.233Z,17.60
2023-04-22T14:03:50.963Z,17.60
2023-04-22T14:06:18.341Z,17.70
2023-04-22T14:08:45.592Z,17.60
2023-04-22T14:11:12.776Z,17.50
2023-04-22T14:13:40.132Z,17.60
2023-04-22T14:16:11.454Z,17.70
2023-04-22T14:18:39.531Z,17.70
2023-04-22T14:21:09.220Z,17.40
2023-04-22T14:23:37.598Z,17.30
2023-04-22T14:26:05.462Z,17.20
2023-04-22T14:28:32.935Z,17.00
2023-04-22T14:30:59.914Z,16.90
2023-04-22T14:33:26.966Z,16.90
2023-04-22T14:35:54.448Z,16.80
2023-04-22T14:38:21.762Z,16.70
2023-04-22T14:40:49.129Z,16.60
2023-04-22T14:43:17.284Z,16.60
2023-04-22T14:45:45.511Z,16.60
2023-04-22T14:48:12.530Z,16.60
2023-04-22T14:50:39.814Z,16.60
2023-04-22T14:53:06.839Z,16.70
2023-04-22T14:55:35.559Z,16.70
2023-04-22T14:58:02.650Z,16.60
2023-04-22T15:00:30.061Z,16.40
2023-04-22T15:02:57.247Z,16.30
2023-04-22T15:05:24.480Z,16.30
2023-04-22T15:07:51.733Z,16.40
2023-04-22T15:10:19.295Z,16.40
2023-04-22T15:12:46.211Z,16.50
2023-04-22T15:15:15.915Z,16.50
2023-04-22T15:17:43.830Z,16.50
2023-04-22T15:20:11.611Z,16.50
2023-04-22T15:22:41.069Z,16.40
2023-04-22T15:25:09.907Z,16.40
2023-04-22T15:27:37.671Z,16.40
2023-04-22T15:30:06.005Z,16.40
2023-04-22T15:32:33.020Z,16.40
2023-04-22T15:35:00.143Z,16.40
2023-04-22T15:37:27.566Z,16.40
2023-04-22T15:39:54.657Z,16.40
2023-04-22T15:42:21.718Z,16.40
2023-04-22T15:44:48.909Z,16.40
2023-04-22T15:47:18.771Z,16.30
2023-04-22T15:49:46.018Z,16.30
2023-04-22T15:52:13.058Z,16.30
2023-04-22T15:54:40.309Z,16.20
2023-04-22T15:57:07.248Z,16.20
2023-04-22T15:59:34.589Z,16.20
2023-04-22T16:02:01.614Z,16.20
2023-04-22T16:04:29.069Z,16.10
2023-04-22T16:06:57.500Z,16.10
2023-04-22T16:09:24.732Z,16.10
2023-04-22T16:14:19.690Z,16.10
2023-04-22T16:16:46.784Z,16.00
2023-04-22T16:19:14.031Z,16.00
2023-04-22T16:21:41.024Z,16.00
2023-04-22T16:24:08.284Z,15.90
2023-04-22T16:26:35.357Z,15.90
2023-04-22T16:29:02.629Z,15.90
2023-04-22T16:31:29.556Z,15.90
2023-04-22T16:33:56.892Z,15.90
2023-04-22T16:36:24.620Z,15.90
2023-04-22T16:38:51.624Z,15.90
2023-04-22T16:41:18.895Z,15.80
2023-04-22T16:43:45.918Z,15.80
2023-04-22T16:46:13.088Z,15.80
2023-04-22T16:48:40.107Z,15.80
2023-04-22T16:51:07.242Z,15.80
2023-04-22T16:53:34.223Z,15.70
2023-04-22T16:56:01.344Z,15.70
2023-04-22T16:58:28.398Z,15.70
2023-04-22T17:00:55.625Z,15.70
2023-04-22T17:03:22.786Z,15.60
2023-04-22T17:05:50.124Z,15.60
2023-04-22T17:08:17.210Z,15.60
2023-04-22T17:10:48.013Z,15.50
2023-04-22T17:13:15.432Z,15.50
2023-04-22T17:15:42.799Z,15.50
2023-04-22T17:18:09.802Z,15.40
2023-04-22T17:20:37.405Z,15.40
2023-04-22T17:23:04.443Z,15.40
2023-04-22T17:25:31.853Z,15.30
2023-04-22T17:27:58.923Z,15.30
2023-04-22T17:30:26.038Z,15.30
2023-04-22T17:32:53.178Z,15.30
2023-04-22T17:35:20.407Z,15.20
2023-04-22T17:37:47.372Z,15.10
2023-04-22T17:42:46.156Z,15.00
2023-04-22T17:45:13.800Z,15.00
2023-04-22T17:47:40.851Z,15.00
2023-04-22T17:50:08.442Z,14.90
2023-04-22T17:52:35.508Z,14.90
2023-04-22T17:55:03.209Z,14.80
2023-04-22T17:57:31.282Z,14.80
2023-04-22T17:59:58.479Z,14.80
2023-04-22T18:02:25.699Z,14.80
2023-04-22T18:04:53.229Z,14.70
2023-04-22T18:07:20.311Z,14.70
2023-04-22T18:09:48.155Z,14.70
2023-04-22T18:12:15.297Z,14.50
2023-04-22T18:14:42.340Z,14.40
2023-04-22T18:17:09.314Z,14.30
2023-04-22T18:22:03.732Z,14.00
2023-04-22T18:24:31.069Z,14.00
2023-04-22T18:26:58.208Z,13.80
2023-04-22T18:29:26.151Z,13.60
2023-04-22T18:31:53.182Z,13.40
2023-04-22T18:34:20.469Z,13.30
2023-04-22T18:36:47.478Z,13.20
2023-04-22T18:39:14.416Z,13.00
2023-04-22T18:41:42.900Z,13.00
2023-04-22T18:44:09.943Z,12.90
2023-04-22T18:46:37.148Z,12.70
2023-04-22T18:49:04.224Z,12.60
2023-04-22T18:51:31.557Z,12.40
2023-04-22T18:53:58.764Z,12.40
2023-04-22T18:56:25.808Z,12.20
2023-04-22T18:58:52.826Z,12.10
2023-04-22T19:01:20.117Z,12.00
2023-04-22T19:03:47.170Z,11.80
2023-04-22T19:06:14.354Z,11.80
2023-04-22T19:08:41.559Z,11.70
2023-04-22T19:11:08.669Z,11.60
2023-04-22T19:13:35.702Z,11.60
2023-04-22T19:16:03.130Z,11.60
2023-04-22T19:18:30.164Z,11.50
2023-04-22T19:20:57.660Z,11.50
2023-04-22T19:23:24.817Z,11.50
2023-04-22T19:25:51.967Z,11.50
2023-04-22T19:28:18.885Z,11.40
2023-04-22T19:30:46.347Z,11.40
2023-04-22T19:33:13.404Z,11.40
2023-04-22T19:35:40.439Z,11.40
2023-04-22T19:38:07.432Z,11.40
2023-04-22T19:40:34.854Z,11.40
2023-04-22T19:43:01.804Z,11.40
2023-04-22T19:45:30.059Z,11.40
2023-04-22T19:47:57.203Z,11.40
2023-04-22T19:50:24.318Z,11.30
2023-04-22T19:52:51.380Z,11.30
2023-04-22T19:55:18.895Z,11.30
2023-04-22T19:57:46.336Z,11.30
2023-04-22T20:00:13.649Z,11.20
2023-04-22T20:02:41.976Z,11.20
2023-04-22T20:05:09.518Z,11.20
2023-04-22T20:07:36.977Z,11.20
2023-04-22T20:10:05.255Z,11.10
2023-04-22T20:12:32.285Z,11.10
2023-04-22T20:15:02.662Z,11.00
2023-04-22T20:17:30.984Z,11.10
2023-04-22T20:19:58.525Z,11.00
2023-04-22T20:22:26.310Z,11.00
2023-04-22T20:25:02.203Z,11.00
2023-04-22T20:27:32.485Z,11.00
2023-04-22T20:29:59.914Z,11.00
2023-04-22T20:32:27.563Z,11.00
2023-04-22T20:34:55.162Z,11.00
2023-04-22T20:37:23.041Z,10.90
2023-04-22T20:39:50.474Z,10.90
2023-04-22T20:42:18.060Z,10.90
2023-04-22T20:44:45.332Z,10.90
2023-04-22T20:47:13.781Z,10.90
2023-04-22T20:49:42.116Z,10.90
2023-04-22T20:52:09.865Z,10.80
2023-04-22T20:54:37.719Z,10.80
2023-04-22T20:57:06.059Z,10.80
2023-04-22T20:59:33.294Z,10.80
2023-04-22T21:02:00.955Z,10.80
2023-04-22T21:04:28.277Z,10.80
2023-04-22T21:06:56.200Z,10.70
2023-04-22T21:09:25.025Z,10.70
2023-04-22T21:11:52.906Z,10.70
2023-04-22T21:14:22.273Z,10.70
2023-04-22T21:17:00.970Z,10.60
2023-04-22T21:19:38.102Z,10.60
2023-04-22T21:22:06.201Z,10.60
2023-04-22T21:24:35.162Z,10.60
2023-04-22T21:27:03.110Z,10.50
2023-04-22T21:29:30.251Z,10.50
2023-04-22T21:32:07.942Z,10.50
2023-04-22T21:34:36.134Z,10.50
2023-04-22T21:37:03.841Z,10.50
2023-04-22T21:39:31.294Z,10.50
2023-04-22T21:41:58.486Z,10.50
2023-04-22T21:44:25.472Z,10.50
2023-04-22T21:46:52.558Z,10.40
2023-04-22T21:49:20.740Z,10.40
2023-04-22T21:51:47.965Z,10.40
2023-04-22T21:54:14.906Z,10.40
2023-04-22T21:56:42.135Z,10.40
2023-04-22T21:59:09.108Z,10.40
2023-04-22T22:01:36.401Z,10.40
2023-04-22T22:04:03.685Z,10.40
2023-04-22T22:06:33.332Z,10.40
2023-04-22T22:09:00.441Z,10.40
2023-04-22T22:11:30.929Z,10.40
2023-04-22T22:13:58.990Z,10.40
2023-04-22T22:16:26.211Z,10.40
2023-04-22T22:18:53.230Z,10.50
2023-04-22T22:21:20.329Z,10.50
2023-04-22T22:23:47.344Z,10.50
2023-04-22T22:26:14.346Z,10.40
2023-04-22T22:28:41.284Z,10.40
2023-04-22T22:31:08.563Z,10.40
2023-04-22T22:33:35.636Z,10.40
2023-04-22T22:36:02.645Z,10.40
2023-04-22T22:38:29.612Z,10.40
2023-04-22T22:40:56.935Z,10.40
2023-04-22T22:43:23.892Z,10.40
2023-04-22T22:45:52.237Z,10.30
2023-04-22T22:48:19.596Z,10.30
2023-04-22T22:50:46.817Z,10.30
2023-04-22T22:53:13.780Z,10.30
2023-04-22T22:55:40.854Z,10.20
2023-04-22T22:58:07.796Z,10.30
2023-04-22T23:00:35.113Z,10.10
2023-04-22T23:03:02.277Z,10.10
2023-04-22T23:05:29.767Z,10.10
2023-04-22T23:07:56.717Z,10.10
2023-04-22T23:10:23.806Z,10.10
2023-04-22T23:12:50.836Z,10.20
2023-04-22T23:15:18.032Z,10.20
2023-04-22T23:17:45.274Z,10.20
2023-04-22T23:20:12.449Z,10.20
2023-04-22T23:22:40.714Z,10.20
2023-04-22T23:25:08.768Z,10.10
2023-04-22T23:27:36.511Z,10.10
2023-04-22T23:30:04.728Z,10.00
2023-04-22T23:32:33.244Z,10.00
2023-04-22T23:35:01.166Z,9.90
2023-04-22T23:37:28.625Z,9.90
2023-04-22T23:39:55.737Z,9.90
2023-04-22T23:42:22.810Z,9.90
2023-04-22T23:44:49.897Z,9.80
2023-04-22T23:47:17.393Z,9.80
2023-04-22T23:49:44.347Z,9.70
2023-04-22T23:52:13.137Z,9.60
2023-04-22T23:54:41.057Z,9.60
2023-04-22T23:57:09.012Z,9.60
2023-04-22T23:59:36.095Z,9.70
